New Harmony, Texas
Current Conditions -  °F | °C
As of 12:15 AM on Thursday 29 Jan 2015 (Local Time) from KOCH Reporting Station
Clear Clear  
Wind Chill: 54°   Ceiling: Unl
Heat Index: 54°   Visibility: 10mi
Dew Point: 46°   Wind: 5mph
Humidity: 77%   Direction: 190°S
Pressure: 30.15"   Gusts: NA
Location:  31.7022°N, 93.9592°W
Report Text: KOCH 290615Z AUTO 19004KT 10SM CLR 12/08 A3015 RMK AO1
Loading
Personal Weather Stations






























Interactive Weather Map New forecast layout! Learn more

10-Day Weather Forecast

Advertisements
Track Severe Weather on mobile